Time;durP1;ratioP1;P1;durP2;ratioP2;P2;SDS_P1;SDS_P2;PMS_P1;PMS_P2;Temp;Humidity;BMP_temperature;BMP_pressure;BME280_temperature;BME280_humidity;BME280_pressure;Samples;Min_cycle;Max_cycle;Signal;HPM_P1;HPM_P2
2022/08/14 00:00:22;;;;;;;5.20;3.57;;;;;;;;;;5061932;28;20209;-67
2022/08/14 00:03:02;;;;;;;4.60;4.20;;;;;;;;;;5060785;28;20248;-67
2022/08/14 00:05:36;;;;;;;5.90;3.87;;;;;;;;;;5056901;28;20213;-68
2022/08/14 00:08:10;;;;;;;4.37;3.63;;;;;;;;;;5061184;28;20217;-67
2022/08/14 00:10:42;;;;;;;6.20;3.87;;;;;;;;;;5064015;28;20579;-67
2022/08/14 00:13:23;;;;;;;4.50;3.80;;;;;;;;;;5048025;28;20634;-67
2022/08/14 00:15:57;;;;;;;8.07;3.80;;;;;;;;;;5058692;28;20190;-67
2022/08/14 00:18:29;;;;;;;4.20;3.50;;;;;;;;;;5065354;28;20202;-67
2022/08/14 00:21:22;;;;;;;4.13;3.83;;;;;;;;;;5063172;28;20202;-67
2022/08/14 00:23:59;;;;;;;4.60;4.00;;;;;;;;;;5063306;28;20274;-67
2022/08/14 00:26:31;;;;;;;4.43;4.03;;;;;;;;;;5067901;28;20697;-67
2022/08/14 00:29:01;;;;;;;5.57;4.50;;;;;;;;;;5060865;28;20221;-67
2022/08/14 00:31:30;;;;;;;4.97;4.57;;;;;;;;;;5040534;28;20198;-66
2022/08/14 00:34:12;;;;;;;4.87;4.37;;;;;;;;;;5064802;28;20228;-68
2022/08/14 00:37:06;;;;;;;5.43;4.83;;;;;;;;;;5063543;28;20186;-66
2022/08/14 00:39:33;;;;;;;5.13;4.67;;;;;;;;;;5064423;28;20280;-66
2022/08/14 00:42:13;;;;;;;6.33;5.03;;;;;;;;;;5048889;28;20197;-67
2022/08/14 00:45:02;;;;;;;5.20;4.70;;;;;;;;;;5062862;28;20630;-67
2022/08/14 00:47:39;;;;;;;5.63;5.13;;;;;;;;;;5050115;28;20277;-67
2022/08/14 00:50:14;;;;;;;5.37;4.87;;;;;;;;;;5048616;28;20682;-67
2022/08/14 00:52:45;;;;;;;6.70;4.80;;;;;;;;;;5047130;28;20231;-66
2022/08/14 00:55:18;;;;;;;6.87;4.93;;;;;;;;;;5028462;28;20187;-67
2022/08/14 00:58:29;;;;;;;5.70;4.40;;;;;;;;;;5034040;28;20206;-67
2022/08/14 01:00:38;;;;;;;5.13;4.73;;;;;;;;;;5034622;28;20210;-67
2022/08/14 01:03:20;;;;;;;5.00;4.60;;;;;;;;;;5032189;28;20186;-67
2022/08/14 01:05:53;;;;;;;5.40;4.67;;;;;;;;;;5024895;28;20280;-67
2022/08/14 01:08:30;;;;;;;5.70;4.60;;;;;;;;;;5015982;28;20245;-68
2022/08/14 01:11:19;;;;;;;6.83;4.30;;;;;;;;;;5030324;28;20186;-67
2022/08/14 01:13:49;;;;;;;5.97;4.20;;;;;;;;;;5038565;28;20597;-67
2022/08/14 01:16:29;;;;;;;5.23;4.37;;;;;;;;;;5041091;28;20872;-68
2022/08/14 01:21:47;;;;;;;6.13;4.30;;;;;;;;;;5033212;28;20211;-68
2022/08/14 01:24:23;;;;;;;4.73;4.27;;;;;;;;;;5026890;28;20205;-66
2022/08/14 01:27:04;;;;;;;4.40;4.00;;;;;;;;;;5026853;28;20199;-66
2022/08/14 01:29:36;;;;;;;4.63;4.23;;;;;;;;;;5007827;28;20606;-67
2022/08/14 01:32:26;;;;;;;6.97;4.20;;;;;;;;;;5027499;28;20211;-67
2022/08/14 01:35:07;;;;;;;4.57;3.97;;;;;;;;;;5029834;28;20608;-67
2022/08/14 01:37:50;;;;;;;4.40;4.00;;;;;;;;;;5012137;28;20870;-67
2022/08/14 01:40:30;;;;;;;3.90;3.60;;;;;;;;;;5031320;28;20281;-66
2022/08/14 01:43:16;;;;;;;6.47;4.50;;;;;;;;;;5024884;28;20683;-67
2022/08/14 01:45:59;;;;;;;5.37;4.00;;;;;;;;;;5026821;28;21407;-67
2022/08/14 01:48:35;;;;;;;4.63;3.53;;;;;;;;;;5030526;28;20229;-67
2022/08/14 01:51:08;;;;;;;5.37;4.27;;;;;;;;;;5039175;28;20710;-67
2022/08/14 01:53:53;;;;;;;5.57;4.10;;;;;;;;;;5051480;28;20225;-67
2022/08/14 01:56:41;;;;;;;4.30;3.90;;;;;;;;;;5050551;28;20210;-67
2022/08/14 01:59:23;;;;;;;7.57;4.20;;;;;;;;;;5052816;28;20209;-67
2022/08/14 02:02:16;;;;;;;4.53;4.13;;;;;;;;;;5060356;28;20206;-67
2022/08/14 02:04:49;;;;;;;4.40;4.00;;;;;;;;;;5059031;28;20194;-67
2022/08/14 02:07:26;;;;;;;4.60;4.13;;;;;;;;;;5058031;28;20205;-67
2022/08/14 02:10:14;;;;;;;4.83;4.40;;;;;;;;;;5045815;28;20719;-67
2022/08/14 02:12:48;;;;;;;4.60;4.03;;;;;;;;;;5042634;28;20433;-67
2022/08/14 02:15:23;;;;;;;4.73;4.30;;;;;;;;;;5045503;28;20205;-67
2022/08/14 02:17:53;;;;;;;4.20;3.80;;;;;;;;;;5051353;28;20197;-67
2022/08/14 02:20:25;;;;;;;4.50;3.87;;;;;;;;;;5066036;28;20214;-67
2022/08/14 02:22:55;;;;;;;4.60;4.20;;;;;;;;;;5067780;28;20194;-67
2022/08/14 02:25:24;;;;;;;4.17;3.80;;;;;;;;;;5070520;28;20205;-67
2022/08/14 02:27:59;;;;;;;4.83;4.13;;;;;;;;;;5034888;28;20216;-67
2022/08/14 02:30:53;;;;;;;5.00;4.17;;;;;;;;;;5066857;28;20208;-67
2022/08/14 02:33:22;;;;;;;4.90;3.97;;;;;;;;;;5054247;28;20567;-67
2022/08/14 02:35:58;;;;;;;4.43;4.03;;;;;;;;;;5054027;28;20201;-68
2022/08/14 02:39:06;;;;;;;5.17;4.50;;;;;;;;;;5052338;28;20233;-67
2022/08/14 02:41:43;;;;;;;5.03;4.07;;;;;;;;;;5049579;28;20201;-67
2022/08/14 02:44:25;;;;;;;4.53;4.13;;;;;;;;;;5027501;28;20304;-67
2022/08/14 02:46:58;;;;;;;4.43;4.10;;;;;;;;;;5066363;28;20189;-67
2022/08/14 02:49:28;;;;;;;4.37;4.07;;;;;;;;;;5050797;28;20218;-67
2022/08/14 02:52:06;;;;;;;5.03;4.50;;;;;;;;;;5062757;28;20226;-67
2022/08/14 02:54:58;;;;;;;4.67;4.27;;;;;;;;;;5062413;28;20208;-67
2022/08/14 02:57:30;;;;;;;4.50;4.20;;;;;;;;;;5049925;28;20206;-67
2022/08/14 03:00:11;;;;;;;4.67;4.10;;;;;;;;;;5043849;28;20204;-67
2022/08/14 03:02:49;;;;;;;6.47;4.67;;;;;;;;;;5042952;28;20225;-68
2022/08/14 03:05:29;;;;;;;4.90;4.50;;;;;;;;;;5049595;28;20201;-67
2022/08/14 03:08:11;;;;;;;4.33;3.93;;;;;;;;;;5050147;28;20292;-67
2022/08/14 03:10:43;;;;;;;4.83;4.20;;;;;;;;;;5056902;28;20209;-68
2022/08/14 03:13:18;;;;;;;5.13;4.10;;;;;;;;;;5044710;28;20193;-68
2022/08/14 03:15:52;;;;;;;5.10;4.70;;;;;;;;;;5063807;28;20266;-67
2022/08/14 03:18:30;;;;;;;5.00;4.17;;;;;;;;;;5057020;28;20220;-67
2022/08/14 03:21:12;;;;;;;6.37;4.77;;;;;;;;;;5061935;28;20508;-67
2022/08/14 03:23:44;;;;;;;4.97;4.30;;;;;;;;;;5057894;28;20202;-67
2022/08/14 03:26:19;;;;;;;5.30;4.80;;;;;;;;;;5045888;28;20202;-67
2022/08/14 03:29:01;;;;;;;5.80;4.60;;;;;;;;;;5046538;28;20582;-67
2022/08/14 03:31:30;;;;;;;5.00;4.60;;;;;;;;;;5058292;28;20209;-67
2022/08/14 03:34:00;;;;;;;6.10;4.00;;;;;;;;;;5065160;28;20198;-67
2022/08/14 03:36:42;;;;;;;6.33;4.60;;;;;;;;;;5060864;28;20532;-67
2022/08/14 03:39:36;;;;;;;9.63;4.90;;;;;;;;;;5040605;28;20539;-67
2022/08/14 03:42:14;;;;;;;8.63;4.37;;;;;;;;;;5067690;28;20199;-67
2022/08/14 03:44:50;;;;;;;5.33;4.40;;;;;;;;;;5063267;28;20689;-67
2022/08/14 03:47:40;;;;;;;5.87;4.50;;;;;;;;;;5048138;28;20186;-67
2022/08/14 03:50:25;;;;;;;6.70;4.53;;;;;;;;;;5050687;28;20666;-66
2022/08/14 03:53:02;;;;;;;5.97;4.70;;;;;;;;;;5050068;28;20299;-67
2022/08/14 03:55:37;;;;;;;5.00;4.60;;;;;;;;;;5045218;28;20189;-67
2022/08/14 03:58:07;;;;;;;5.80;4.70;;;;;;;;;;5060634;28;20197;-67
2022/08/14 04:00:41;;;;;;;6.43;5.00;;;;;;;;;;5062244;28;20221;-67
2022/08/14 04:03:13;;;;;;;5.67;5.10;;;;;;;;;;5046113;28;20642;-67
2022/08/14 04:05:50;;;;;;;5.17;4.67;;;;;;;;;;5054869;28;20263;-67
2022/08/14 04:08:38;;;;;;;5.50;5.07;;;;;;;;;;5056648;28;20240;-67
2022/08/14 04:11:10;;;;;;;5.47;5.07;;;;;;;;;;5058170;28;20228;-67
2022/08/14 04:13:43;;;;;;;5.97;5.37;;;;;;;;;;5059906;28;20259;-68
2022/08/14 04:16:21;;;;;;;7.87;5.17;;;;;;;;;;5051949;28;20190;-67
2022/08/14 04:19:03;;;;;;;5.60;5.13;;;;;;;;;;5033629;28;20521;-67
2022/08/14 04:21:49;;;;;;;5.90;5.13;;;;;;;;;;5064080;28;20209;-67
2022/08/14 04:24:34;;;;;;;5.20;4.70;;;;;;;;;;5065887;28;20201;-67
2022/08/14 04:27:10;;;;;;;6.73;4.90;;;;;;;;;;5051535;28;20201;-67
2022/08/14 04:29:40;;;;;;;5.90;5.10;;;;;;;;;;5040922;28;20199;-67
2022/08/14 04:32:14;;;;;;;5.97;5.47;;;;;;;;;;5029965;28;20611;-67
2022/08/14 04:35:06;;;;;;;5.53;5.03;;;;;;;;;;5041451;28;20186;-68
2022/08/14 04:43:47;;;;;;;6.37;5.77;;;;;;;;;;5044677;28;20481;-66
2022/08/14 04:46:20;;;;;;;6.37;5.73;;;;;;;;;;5066302;28;20200;-67
2022/08/14 04:49:12;;;;;;;6.53;5.80;;;;;;;;;;5057508;28;20190;-67
2022/08/14 04:51:42;;;;;;;6.90;5.67;;;;;;;;;;5062100;28;20225;-67
2022/08/14 04:54:25;;;;;;;5.97;5.37;;;;;;;;;;5062790;28;20260;-67
2022/08/14 04:57:08;;;;;;;8.13;5.93;;;;;;;;;;5055208;28;20242;-67
2022/08/14 04:59:44;;;;;;;5.73;5.20;;;;;;;;;;5060549;28;20197;-67
2022/08/14 05:02:16;;;;;;;6.13;5.53;;;;;;;;;;5066939;28;20204;-67
2022/08/14 05:04:47;;;;;;;6.00;5.40;;;;;;;;;;5065305;28;20186;-68
2022/08/14 05:07:27;;;;;;;6.40;5.80;;;;;;;;;;5039726;28;20206;-67
2022/08/14 05:10:22;;;;;;;6.63;5.97;;;;;;;;;;5060930;28;20206;-67
2022/08/14 05:13:04;;;;;;;6.27;5.50;;;;;;;;;;5066115;28;20190;-67
2022/08/14 05:15:45;;;;;;;6.47;5.87;;;;;;;;;;5048064;28;20209;-67
2022/08/14 05:18:30;;;;;;;7.37;6.20;;;;;;;;;;5057344;28;20192;-67
2022/08/14 05:21:23;;;;;;;6.60;5.47;;;;;;;;;;5057961;28;20213;-68
2022/08/14 05:24:18;;;;;;;6.50;5.90;;;;;;;;;;5053103;28;20195;-67
2022/08/14 05:26:50;;;;;;;6.43;5.83;;;;;;;;;;5077594;28;20234;-67
2022/08/14 05:29:21;;;;;;;6.73;6.13;;;;;;;;;;5054872;28;20198;-67
2022/08/14 05:31:59;;;;;;;9.63;5.53;;;;;;;;;;5055737;28;20238;-68
2022/08/14 05:34:47;;;;;;;6.70;6.07;;;;;;;;;;5064711;28;20651;-68
2022/08/14 05:37:23;;;;;;;5.90;5.40;;;;;;;;;;5059279;28;20202;-68
2022/08/14 05:39:53;;;;;;;6.27;5.67;;;;;;;;;;5058417;28;20205;-67
2022/08/14 05:42:28;;;;;;;6.73;6.10;;;;;;;;;;5066437;28;20198;-67
2022/08/14 05:45:16;;;;;;;6.80;6.30;;;;;;;;;;5048689;28;20226;-67
2022/08/14 05:47:48;;;;;;;8.17;6.70;;;;;;;;;;5057992;28;20197;-67
2022/08/14 05:50:27;;;;;;;10.57;6.60;;;;;;;;;;5061961;28;20233;-67
2022/08/14 05:53:03;;;;;;;6.73;6.13;;;;;;;;;;5040014;28;20233;-68
2022/08/14 05:55:36;;;;;;;7.17;6.47;;;;;;;;;;5049707;28;20190;-67
2022/08/14 05:58:19;;;;;;;7.23;6.53;;;;;;;;;;5048073;28;20217;-67
2022/08/14 06:01:00;;;;;;;8.63;7.50;;;;;;;;;;5037520;28;20186;-67
2022/08/14 06:03:29;;;;;;;7.80;7.10;;;;;;;;;;5048694;28;20222;-68
2022/08/14 06:06:02;;;;;;;8.23;7.47;;;;;;;;;;5053083;28;20504;-67
2022/08/14 06:08:33;;;;;;;8.53;7.60;;;;;;;;;;5049272;28;20218;-67
2022/08/14 06:11:08;;;;;;;10.77;8.37;;;;;;;;;;5051678;28;20304;-67
2022/08/14 06:13:39;;;;;;;10.43;8.53;;;;;;;;;;5048982;28;20205;-67
2022/08/14 06:16:16;;;;;;;10.20;8.87;;;;;;;;;;5050166;28;20571;-67
2022/08/14 06:18:47;;;;;;;10.30;9.30;;;;;;;;;;5040922;28;20201;-68
2022/08/14 06:21:18;;;;;;;9.57;8.77;;;;;;;;;;5022984;28;20226;-67
2022/08/14 06:23:52;;;;;;;9.33;8.53;;;;;;;;;;5048236;28;20194;-67
2022/08/14 06:26:21;;;;;;;9.50;8.60;;;;;;;;;;5047781;28;20526;-67
2022/08/14 06:28:59;;;;;;;8.63;7.83;;;;;;;;;;5052194;28;20190;-67
2022/08/14 06:31:37;;;;;;;8.13;7.40;;;;;;;;;;5051389;28;20221;-68
2022/08/14 06:34:10;;;;;;;7.80;7.20;;;;;;;;;;5053022;28;20202;-68
2022/08/14 06:37:04;;;;;;;7.87;6.97;;;;;;;;;;5045420;28;20198;-68
2022/08/14 06:39:34;;;;;;;7.53;6.87;;;;;;;;;;5050898;28;20725;-65
2022/08/14 06:42:06;;;;;;;7.73;6.90;;;;;;;;;;5053233;28;20274;-67
2022/08/14 06:45:01;;;;;;;7.57;6.90;;;;;;;;;;5045639;28;20221;-66
2022/08/14 06:47:33;;;;;;;7.30;6.60;;;;;;;;;;5050386;28;20201;-66
2022/08/14 06:50:06;;;;;;;7.00;6.40;;;;;;;;;;5050162;28;20264;-66
2022/08/14 06:52:39;;;;;;;7.00;6.40;;;;;;;;;;5032894;28;20620;-65
2022/08/14 06:55:21;;;;;;;7.90;5.97;;;;;;;;;;5073575;28;20214;-65
2022/08/14 06:57:56;;;;;;;7.70;6.47;;;;;;;;;;5071235;28;20206;-66
2022/08/14 07:00:34;;;;;;;6.83;6.20;;;;;;;;;;5065441;28;20674;-66
2022/08/14 07:05:56;;;;;;;7.27;6.60;;;;;;;;;;5067504;28;20232;-67
2022/08/14 07:08:32;;;;;;;8.10;6.27;;;;;;;;;;5067042;28;20559;-66
2022/08/14 07:11:03;;;;;;;6.83;6.20;;;;;;;;;;5063361;28;20535;-66
2022/08/14 07:13:37;;;;;;;7.97;6.53;;;;;;;;;;5060721;28;20284;-66
2022/08/14 07:16:12;;;;;;;7.53;6.50;;;;;;;;;;5052771;28;20209;-66
2022/08/14 07:18:55;;;;;;;7.07;6.47;;;;;;;;;;5061834;28;20198;-67
2022/08/14 07:21:25;;;;;;;7.37;6.47;;;;;;;;;;5055453;28;20217;-66
2022/08/14 07:23:56;;;;;;;7.03;6.33;;;;;;;;;;5068395;28;20654;-68
2022/08/14 07:26:28;;;;;;;6.50;5.90;;;;;;;;;;5066692;28;20225;-68
2022/08/14 07:29:00;;;;;;;7.07;6.47;;;;;;;;;;5061402;28;20206;-68
2022/08/14 07:31:32;;;;;;;6.47;5.97;;;;;;;;;;5060811;28;20228;-67
2022/08/14 07:34:02;;;;;;;9.57;6.00;;;;;;;;;;5069930;28;20202;-68
2022/08/14 07:36:34;;;;;;;10.27;6.13;;;;;;;;;;5055743;28;20655;-68
2022/08/14 07:39:21;;;;;;;12.53;6.00;;;;;;;;;;5067979;28;20527;-68
2022/08/14 07:41:59;;;;;;;6.50;5.90;;;;;;;;;;5066020;28;20193;-68
2022/08/14 07:44:32;;;;;;;6.70;6.17;;;;;;;;;;5065484;28;20287;-69
2022/08/14 07:47:14;;;;;;;6.40;5.90;;;;;;;;;;5064763;28;20643;-68
2022/08/14 07:50:02;;;;;;;6.70;6.03;;;;;;;;;;5065122;28;20781;-68
2022/08/14 07:52:34;;;;;;;9.07;5.90;;;;;;;;;;5055578;28;20910;-68
2022/08/14 07:55:04;;;;;;;6.00;5.50;;;;;;;;;;5050446;28;20213;-67
2022/08/14 07:57:37;;;;;;;6.37;5.77;;;;;;;;;;5055525;28;20193;-68
2022/08/14 08:00:10;;;;;;;6.10;5.53;;;;;;;;;;5069048;28;20212;-68
2022/08/14 08:02:59;;;;;;;7.03;6.40;;;;;;;;;;5059953;28;20186;-67
2022/08/14 08:05:35;;;;;;;6.67;6.17;;;;;;;;;;5063296;28;20197;-68
2022/08/14 08:08:04;;;;;;;6.17;5.70;;;;;;;;;;5056619;28;20210;-68
2022/08/14 08:10:58;;;;;;;6.93;6.33;;;;;;;;;;5062795;28;20244;-67
2022/08/14 08:13:43;;;;;;;6.13;5.63;;;;;;;;;;5063651;28;20201;-68
2022/08/14 08:16:22;;;;;;;7.10;5.50;;;;;;;;;;5058288;28;20208;-68
2022/08/14 08:18:55;;;;;;;6.30;5.70;;;;;;;;;;5071770;28;20763;-69
2022/08/14 08:21:39;;;;;;;5.97;5.53;;;;;;;;;;5030192;28;20325;-68
2022/08/14 08:24:11;;;;;;;5.57;5.17;;;;;;;;;;5055677;28;20198;-68
2022/08/14 08:26:44;;;;;;;6.70;6.10;;;;;;;;;;5059685;28;20201;-68
2022/08/14 08:29:23;;;;;;;6.63;6.07;;;;;;;;;;5067573;28;20289;-68
2022/08/14 08:31:58;;;;;;;8.10;5.70;;;;;;;;;;5058483;28;20245;-69
2022/08/14 08:34:43;;;;;;;6.40;5.83;;;;;;;;;;5019276;28;20228;-68
2022/08/14 08:37:13;;;;;;;6.70;6.10;;;;;;;;;;5046411;28;20201;-68
2022/08/14 08:39:48;;;;;;;6.40;5.80;;;;;;;;;;5056382;28;20228;-68
2022/08/14 08:42:35;;;;;;;7.27;6.37;;;;;;;;;;5050428;28;20204;-68
2022/08/14 08:45:22;;;;;;;6.43;5.83;;;;;;;;;;5062581;28;20605;-68
2022/08/14 08:48:00;;;;;;;6.80;6.20;;;;;;;;;;5062848;28;20221;-68
2022/08/14 08:50:44;;;;;;;6.77;6.17;;;;;;;;;;5061537;28;20189;-68
2022/08/14 08:53:16;;;;;;;7.10;6.50;;;;;;;;;;5054631;28;20249;-67
2022/08/14 08:55:46;;;;;;;6.50;5.90;;;;;;;;;;5032085;28;20699;-67
2022/08/14 08:58:25;;;;;;;7.40;6.70;;;;;;;;;;5043193;28;20202;-67
2022/08/14 09:00:54;;;;;;;6.67;6.07;;;;;;;;;;5028937;28;20532;-68
2022/08/14 09:03:24;;;;;;;6.67;6.07;;;;;;;;;;5044590;28;20187;-69
2022/08/14 09:05:56;;;;;;;7.40;6.70;;;;;;;;;;5022620;28;20184;-68
2022/08/14 09:08:26;;;;;;;6.80;6.30;;;;;;;;;;5036648;28;20199;-67
2022/08/14 09:11:01;;;;;;;6.50;5.90;;;;;;;;;;5032827;28;20190;-68
2022/08/14 09:13:50;;;;;;;5.80;5.30;;;;;;;;;;5038020;28;20739;-67
2022/08/14 09:16:23;;;;;;;6.47;6.03;;;;;;;;;;5029388;28;20225;-67
2022/08/14 09:18:54;;;;;;;5.87;5.33;;;;;;;;;;5028090;28;20233;-67
2022/08/14 09:21:23;;;;;;;6.37;5.80;;;;;;;;;;5031943;28;20215;-66
2022/08/14 09:23:59;;;;;;;6.50;5.90;;;;;;;;;;5039133;28;20234;-67
2022/08/14 09:26:51;;;;;;;5.97;5.47;;;;;;;;;;5045563;28;20198;-65
2022/08/14 09:29:21;;;;;;;6.97;5.37;;;;;;;;;;5040045;28;20258;-68
2022/08/14 09:32:02;;;;;;;10.03;5.50;;;;;;;;;;5031391;28;20332;-65
2022/08/14 09:35:13;;;;;;;7.07;5.50;;;;;;;;;;5031013;28;20194;-66
2022/08/14 09:38:02;;;;;;;6.10;5.00;;;;;;;;;;5035055;28;20195;-66
2022/08/14 09:40:46;;;;;;;6.90;5.13;;;;;;;;;;5029368;28;20612;-66
2022/08/14 09:43:54;;;;;;;5.90;5.10;;;;;;;;;;5043616;28;20206;-67
2022/08/14 09:46:27;;;;;;;5.47;4.97;;;;;;;;;;4971275;28;20225;-67
2022/08/14 09:49:01;;;;;;;5.23;4.73;;;;;;;;;;4969828;28;20208;-66
2022/08/14 09:51:30;;;;;;;5.57;5.17;;;;;;;;;;4966676;28;20251;-66
2022/08/14 09:54:11;;;;;;;5.53;4.57;;;;;;;;;;4964891;28;20267;-66
2022/08/14 09:56:53;;;;;;;4.90;4.50;;;;;;;;;;4971193;28;20213;-66
2022/08/14 09:59:40;;;;;;;5.30;4.80;;;;;;;;;;5020216;28;20213;-66
2022/08/14 10:02:22;;;;;;;5.07;4.67;;;;;;;;;;5047319;28;20194;-66
2022/08/14 10:05:10;;;;;;;6.60;5.00;;;;;;;;;;5036251;28;20224;-66
2022/08/14 10:07:52;;;;;;;4.87;4.50;;;;;;;;;;5029730;28;20600;-66
2022/08/14 10:10:40;;;;;;;5.13;4.50;;;;;;;;;;5036713;28;20206;-66
2022/08/14 10:13:26;;;;;;;5.17;4.70;;;;;;;;;;5037625;28;20190;-66
2022/08/14 10:16:11;;;;;;;4.60;4.20;;;;;;;;;;5037407;28;20199;-66
2022/08/14 10:19:11;;;;;;;4.90;4.50;;;;;;;;;;5039273;28;20683;-66
2022/08/14 10:22:09;;;;;;;5.27;4.83;;;;;;;;;;5019017;28;20206;-66
2022/08/14 10:25:10;;;;;;;5.10;4.20;;;;;;;;;;5042577;28;20206;-66
2022/08/14 10:27:48;;;;;;;4.90;4.40;;;;;;;;;;5032138;28;20526;-66
2022/08/14 10:30:33;;;;;;;4.73;4.33;;;;;;;;;;5029478;28;20209;-67
2022/08/14 10:33:07;;;;;;;4.90;4.50;;;;;;;;;;5025338;28;20876;-67
2022/08/14 10:35:45;;;;;;;4.97;4.57;;;;;;;;;;5034461;28;20195;-66
2022/08/14 10:38:26;;;;;;;4.97;4.50;;;;;;;;;;5043161;28;20195;-66
2022/08/14 10:41:00;;;;;;;4.73;4.33;;;;;;;;;;5040279;28;20194;-66
2022/08/14 10:43:34;;;;;;;4.83;4.43;;;;;;;;;;5035547;28;20210;-64
2022/08/14 10:46:11;;;;;;;4.90;4.50;;;;;;;;;;5049754;28;20198;-65
2022/08/14 10:49:03;;;;;;;4.80;4.40;;;;;;;;;;5035779;28;20273;-65
2022/08/14 10:51:34;;;;;;;4.70;4.30;;;;;;;;;;5028655;28;20210;-65
2022/08/14 10:54:10;;;;;;;4.90;4.50;;;;;;;;;;5051097;28;20249;-65
2022/08/14 10:56:46;;;;;;;4.73;4.40;;;;;;;;;;5031743;28;20205;-64
2022/08/14 10:59:14;;;;;;;5.20;4.53;;;;;;;;;;5063116;28;20193;-66
2022/08/14 11:01:48;;;;;;;4.77;4.47;;;;;;;;;;5057446;28;20403;-66
2022/08/14 11:04:24;;;;;;;4.80;4.40;;;;;;;;;;5038784;28;20207;-66
2022/08/14 11:06:59;;;;;;;5.60;4.17;;;;;;;;;;5034579;28;20201;-67
2022/08/14 11:09:33;;;;;;;5.00;4.60;;;;;;;;;;5040356;28;20685;-67
2022/08/14 11:12:10;;;;;;;4.53;4.20;;;;;;;;;;5050945;28;20209;-67
2022/08/14 11:15:06;;;;;;;4.37;4.07;;;;;;;;;;5063625;28;20658;-67
2022/08/14 11:17:45;;;;;;;4.50;4.10;;;;;;;;;;5047571;28;20206;-67
2022/08/14 11:20:22;;;;;;;4.67;4.30;;;;;;;;;;5063078;28;20229;-67
2022/08/14 11:23:01;;;;;;;4.60;4.20;;;;;;;;;;5054242;28;20228;-67
2022/08/14 11:25:46;;;;;;;4.30;4.00;;;;;;;;;;5054162;28;20194;-67
2022/08/14 11:28:24;;;;;;;5.00;4.60;;;;;;;;;;5051584;28;20194;-67
2022/08/14 11:31:18;;;;;;;4.30;4.00;;;;;;;;;;5058530;28;20202;-67
2022/08/14 11:33:56;;;;;;;4.83;4.43;;;;;;;;;;5028765;28;20215;-67
2022/08/14 11:36:26;;;;;;;4.43;4.10;;;;;;;;;;5041592;28;20225;-68
2022/08/14 11:39:25;;;;;;;4.13;3.83;;;;;;;;;;5055512;28;20636;-67
2022/08/14 11:42:05;;;;;;;4.03;3.70;;;;;;;;;;5062790;28;20247;-67
2022/08/14 11:44:58;;;;;;;4.23;3.90;;;;;;;;;;5053630;28;20237;-68
2022/08/14 11:47:38;;;;;;;3.90;3.60;;;;;;;;;;5060961;28;20201;-67
2022/08/14 11:50:30;;;;;;;4.20;3.80;;;;;;;;;;5045488;28;20210;-67
2022/08/14 11:53:09;;;;;;;4.13;3.83;;;;;;;;;;5059865;28;20265;-67
2022/08/14 11:55:42;;;;;;;3.80;3.50;;;;;;;;;;5053284;28;20205;-67
2022/08/14 11:58:26;;;;;;;4.00;3.70;;;;;;;;;;5066036;28;20282;-67
2022/08/14 12:01:01;;;;;;;3.77;3.57;;;;;;;;;;5064284;28;20700;-66
2022/08/14 12:03:46;;;;;;;3.97;3.67;;;;;;;;;;5043921;28;20201;-67
2022/08/14 12:06:31;;;;;;;3.90;3.50;;;;;;;;;;5064898;28;20593;-67
2022/08/14 12:09:35;;;;;;;4.00;3.70;;;;;;;;;;5062352;28;20263;-67
2022/08/14 12:12:16;;;;;;;3.67;3.37;;;;;;;;;;5061035;28;20871;-67
2022/08/14 12:15:04;;;;;;;3.93;3.63;;;;;;;;;;5056277;28;20205;-67
2022/08/14 12:17:48;;;;;;;3.90;3.50;;;;;;;;;;5047431;28;20201;-66
2022/08/14 12:20:37;;;;;;;4.00;3.70;;;;;;;;;;5042347;28;20210;-67
2022/08/14 12:23:27;;;;;;;3.70;3.40;;;;;;;;;;5063278;28;20221;-67
2022/08/14 12:26:20;;;;;;;3.27;3.07;;;;;;;;;;5065505;28;20194;-67
2022/08/14 12:29:08;;;;;;;4.67;3.70;;;;;;;;;;5050139;28;20228;-67
2022/08/14 12:32:03;;;;;;;3.67;3.37;;;;;;;;;;5059744;28;20706;-67
2022/08/14 12:34:41;;;;;;;3.60;3.30;;;;;;;;;;5064256;28;20213;-67
2022/08/14 12:37:15;;;;;;;3.23;3.03;;;;;;;;;;5063746;28;20237;-67
2022/08/14 12:39:48;;;;;;;3.90;3.50;;;;;;;;;;5052366;28;20201;-67
2022/08/14 12:42:20;;;;;;;3.57;3.27;;;;;;;;;;5060871;28;20664;-68
2022/08/14 12:45:03;;;;;;;3.47;3.27;;;;;;;;;;5055454;28;20225;-67
2022/08/14 12:47:37;;;;;;;3.87;3.57;;;;;;;;;;5068241;28;20204;-67
2022/08/14 12:50:07;;;;;;;3.37;3.17;;;;;;;;;;5047608;28;20628;-67
2022/08/14 12:52:44;;;;;;;3.77;3.47;;;;;;;;;;5062172;28;20558;-67
2022/08/14 12:55:40;;;;;;;3.53;3.23;;;;;;;;;;5060378;28;20292;-68
2022/08/14 12:58:30;;;;;;;4.10;3.77;;;;;;;;;;5059738;28;20233;-67
2022/08/14 13:01:20;;;;;;;3.63;3.33;;;;;;;;;;5036087;28;20286;-67
2022/08/14 13:04:04;;;;;;;3.87;3.57;;;;;;;;;;5042546;28;20671;-67
2022/08/14 13:06:35;;;;;;;3.80;3.40;;;;;;;;;;5061277;28;20240;-68
2022/08/14 13:09:07;;;;;;;3.60;3.30;;;;;;;;;;5047060;28;20238;-67
2022/08/14 13:11:48;;;;;;;3.50;3.23;;;;;;;;;;5040157;28;20208;-67
2022/08/14 13:14:48;;;;;;;3.70;3.40;;;;;;;;;;5057673;28;20547;-68
2022/08/14 13:17:24;;;;;;;4.63;3.47;;;;;;;;;;5067858;28;20197;-67
2022/08/14 13:20:06;;;;;;;3.87;3.57;;;;;;;;;;5062517;28;20213;-67
2022/08/14 13:22:54;;;;;;;3.50;3.30;;;;;;;;;;5056831;28;20194;-67
2022/08/14 13:25:26;;;;;;;3.70;3.40;;;;;;;;;;5061353;28;20347;-67
2022/08/14 13:27:59;;;;;;;3.40;3.20;;;;;;;;;;5044429;28;20301;-67
2022/08/14 13:30:42;;;;;;;3.47;3.10;;;;;;;;;;5058459;28;20197;-67
2022/08/14 13:33:13;;;;;;;3.53;3.23;;;;;;;;;;5061861;28;20237;-67
2022/08/14 13:35:46;;;;;;;3.60;3.40;;;;;;;;;;5046249;28;20193;-67
2022/08/14 13:38:21;;;;;;;3.47;3.17;;;;;;;;;;5061379;28;20628;-67
2022/08/14 13:40:57;;;;;;;3.93;3.60;;;;;;;;;;5045367;28;20531;-67
2022/08/14 13:43:30;;;;;;;4.40;3.67;;;;;;;;;;5037583;28;20206;-67
2022/08/14 13:46:19;;;;;;;3.57;3.27;;;;;;;;;;5065522;28;20213;-67
2022/08/14 13:48:56;;;;;;;3.70;3.50;;;;;;;;;;5075340;28;20205;-67
2022/08/14 13:51:34;;;;;;;3.70;3.40;;;;;;;;;;5058787;28;20201;-67
2022/08/14 13:54:05;;;;;;;3.80;3.50;;;;;;;;;;5060447;28;20229;-65
2022/08/14 13:56:39;;;;;;;3.20;3.00;;;;;;;;;;5037129;28;20240;-67
2022/08/14 13:59:14;;;;;;;3.57;3.37;;;;;;;;;;5061482;28;20202;-67
2022/08/14 14:02:07;;;;;;;3.27;3.07;;;;;;;;;;5060174;28;20663;-66
2022/08/14 14:04:50;;;;;;;3.17;2.80;;;;;;;;;;5062504;28;20200;-66
2022/08/14 14:07:26;;;;;;;3.67;3.37;;;;;;;;;;5059928;28;20197;-66
2022/08/14 14:10:02;;;;;;;3.17;2.90;;;;;;;;;;5063146;28;20237;-66
2022/08/14 14:12:39;;;;;;;3.30;3.00;;;;;;;;;;5057442;28;20218;-66
2022/08/14 14:15:24;;;;;;;3.50;3.20;;;;;;;;;;5062460;28;20789;-67
2022/08/14 14:18:15;;;;;;;3.40;3.10;;;;;;;;;;5062612;28;20225;-67
2022/08/14 14:21:05;;;;;;;3.40;3.20;;;;;;;;;;5053856;28;20212;-66
2022/08/14 14:23:45;;;;;;;2.93;2.73;;;;;;;;;;5050610;28;20211;-67
2022/08/14 14:26:17;;;;;;;3.10;2.90;;;;;;;;;;5052545;28;20262;-67
2022/08/14 14:28:58;;;;;;;3.20;3.00;;;;;;;;;;5066203;28;20568;-67
2022/08/14 14:31:28;;;;;;;3.00;2.80;;;;;;;;;;5033515;28;20197;-67
2022/08/14 14:34:05;;;;;;;3.60;3.30;;;;;;;;;;5064733;28;20229;-67
2022/08/14 14:37:01;;;;;;;3.30;3.10;;;;;;;;;;5058443;28;20647;-67
2022/08/14 14:39:39;;;;;;;3.43;3.13;;;;;;;;;;5044536;28;20234;-67
2022/08/14 14:42:33;;;;;;;3.13;2.93;;;;;;;;;;5053276;28;20205;-66
2022/08/14 14:45:16;;;;;;;3.60;3.30;;;;;;;;;;5060763;28;20227;-65
2022/08/14 14:47:59;;;;;;;3.10;2.90;;;;;;;;;;5056234;28;20193;-66
2022/08/14 14:50:26;;;;;;;3.47;3.27;;;;;;;;;;5064094;28;20208;-66
2022/08/14 14:53:04;;;;;;;3.07;2.87;;;;;;;;;;5063949;28;20259;-66
2022/08/14 14:55:44;;;;;;;3.00;2.80;;;;;;;;;;5059603;28;20633;-66
2022/08/14 14:58:36;;;;;;;4.07;3.67;;;;;;;;;;5063088;28;20225;-66
2022/08/14 15:01:14;;;;;;;3.60;3.30;;;;;;;;;;5063363;28;20352;-65
2022/08/14 15:03:45;;;;;;;3.47;3.17;;;;;;;;;;5059267;28;20189;-66
2022/08/14 15:06:18;;;;;;;3.57;3.07;;;;;;;;;;5063902;28;20529;-66
2022/08/14 15:09:03;;;;;;;3.30;3.00;;;;;;;;;;5041877;28;20703;-64
2022/08/14 15:11:46;;;;;;;3.60;3.00;;;;;;;;;;5046136;28;20201;-65
2022/08/14 15:14:20;;;;;;;3.53;3.33;;;;;;;;;;5060344;28;20662;-65
2022/08/14 15:17:10;;;;;;;3.50;3.20;;;;;;;;;;5064142;28;20320;-65
2022/08/14 15:19:40;;;;;;;3.80;3.40;;;;;;;;;;5060091;28;20186;-65
2022/08/14 15:22:27;;;;;;;4.10;2.83;;;;;;;;;;5051868;28;20209;-65
2022/08/14 15:25:13;;;;;;;3.70;3.40;;;;;;;;;;5067532;28;20193;-65
2022/08/14 15:28:11;;;;;;;3.43;3.13;;;;;;;;;;5057050;28;20197;-65
2022/08/14 15:30:49;;;;;;;3.53;3.23;;;;;;;;;;5049328;28;20185;-65
2022/08/14 15:36:38;;;;;;;3.57;3.27;;;;;;;;;;5050351;28;20549;-65
2022/08/14 15:39:17;;;;;;;3.63;3.33;;;;;;;;;;5059959;28;20213;-65
2022/08/14 15:41:50;;;;;;;4.40;3.70;;;;;;;;;;5063810;28;20196;-65
2022/08/14 15:44:27;;;;;;;3.87;3.57;;;;;;;;;;5052879;28;20210;-65
2022/08/14 15:47:12;;;;;;;4.50;3.73;;;;;;;;;;5051808;28;20717;-65
2022/08/14 15:49:53;;;;;;;5.23;3.63;;;;;;;;;;5056455;28;20524;-65
2022/08/14 15:52:25;;;;;;;4.10;3.80;;;;;;;;;;5051394;28;20194;-65
2022/08/14 15:55:12;;;;;;;3.60;3.30;;;;;;;;;;5047513;28;20202;-65
2022/08/14 15:57:47;;;;;;;4.00;3.67;;;;;;;;;;5043016;28;20557;-65
2022/08/14 16:03:23;;;;;;;4.40;4.00;;;;;;;;;;5061104;28;20194;-65
2022/08/14 16:06:32;;;;;;;4.13;3.80;;;;;;;;;;5058611;28;20728;-70
2022/08/14 16:09:15;;;;;;;3.90;3.60;;;;;;;;;;5057047;28;20708;-65
2022/08/14 16:11:50;;;;;;;3.67;3.40;;;;;;;;;;5057051;28;20201;-65